Latest Weather Observations for Eildon Fire Tower

IDV60801

Issued at 10:02 am EST Wednesday 8 July 2015 (issued every 30 minutes, with the page automatically refreshed every 10 minutes)

About weather observations | Map of weather stations | Latest weather observations for VIC | Other Formats
Station Details ID: 088164 Name: EILDON FIRE TOWER Lat: -37.21 Lon: 145.84 Height: 637.0 m
Data from the previous 72 hours. | See also: Recent months at Eildon Fire Tower
Date/Time
EST
Temp
°C
App
Temp
°C
Dew
Point
Rel
Hum
%
Delta-T
°C
Wind Press
QNH
hPa
Press
MSL
hPa
Rain
since 9 am
mm
Dir
 
Spd
km/h
Gust
km/h
Spd
kts
Gust
kts
08/10:00am 6.7 2.7 2.6 75 1.8 NE 13 15 7 8 - - 0.0
08/09:30am 6.8 2.1 3.2 78 1.6 ENE 17 19 9 10 - - 0.0
08/09:00am 6.1 2.1 2.7 79 1.5 ENE 13 15 7 8 - - 0.0
08/08:30am 5.8 1.4 2.8 81 1.3 E 15 17 8 9 - - 0.0
08/08:00am 4.4 0.0 2.6 88 0.8 E 15 17 8 9 - - 0.0
08/07:30am 2.8 -1.8 1.8 93 0.4 E 15 17 8 9 - - 0.0
08/07:00am 3.4 -1.1 2.1 91 0.5 E 15 17 8 9 - - 0.0
08/06:30am 3.8 -0.7 2.3 90 0.6 E 15 17 8 9 - - 0.0
08/06:00am 3.9 -0.2 2.4 90 0.6 E 13 17 7 9 - - 0.0
08/05:30am 3.9 -0.5 2.7 92 0.5 E 15 15 8 8 - - 0.0
08/05:00am 4.0 -0.1 2.4 89 0.7 E 13 15 7 8 - - 0.0
08/04:30am 4.0 -0.5 2.4 89 0.7 E 15 17 8 9 - - 0.0
08/04:00am 4.3 0.2 2.5 88 0.8 E 13 15 7 8 - - 0.0
08/03:30am 4.5 0.5 3.0 90 0.6 E 13 15 7 8 - - 0.0
08/03:00am 4.9 0.9 3.1 88 0.8 E 13 15 7 8 - - 0.0
08/02:30am 5.0 1.0 2.7 85 1.0 E 13 13 7 7 - - 0.0
08/02:00am 5.3 1.4 3.2 86 0.9 E 13 15 7 8 - - 0.0
08/01:30am 5.1 0.7 2.8 85 1.0 E 15 17 8 9 - - 0.0
08/01:00am 5.3 0.5 2.7 83 1.1 E 17 17 9 9 - - 0.0
08/12:30am 5.5 0.4 3.0 84 1.1 E 19 20 10 11 - - 0.0
08/12:00am 5.6 0.9 2.9 83 1.2 E 17 19 9 10 - - 0.0
 
Date/Time
EST
Temp
°C
App
Temp
°C
Dew
Point
Rel
Hum
%
Delta-T
°C
Wind Press
QNH
hPa
Press
MSL
hPa
Rain
since 9 am
mm
Dir
 
Spd
km/h
Gust
km/h
Spd
kts
Gust
kts
07/11:30pm 5.9 1.6 3.1 82 1.2 E 15 17 8 9 - - 0.0
07/11:00pm 6.1 1.7 2.9 80 1.4 E 15 17 8 9 - - 0.0
07/10:30pm 6.1 1.7 2.7 79 1.5 E 15 17 8 9 - - 0.0
07/10:00pm 6.3 2.7 3.1 80 1.4 ESE 11 15 6 8 - - 0.0
07/09:30pm 6.5 3.0 3.3 80 1.4 E 11 15 6 8 - - 0.0
07/09:00pm 6.6 2.7 3.6 81 1.3 E 13 15 7 8 - - 0.0
07/08:30pm 7.0 3.5 3.3 77 1.6 E 11 15 6 8 - - 0.0
07/08:00pm 7.2 4.4 2.9 74 1.9 ESE 7 13 4 7 - - 0.0
07/07:30pm 7.3 4.5 3.2 75 1.8 ESE 7 11 4 6 - - 0.0
07/07:00pm 7.5 4.8 3.9 78 1.6 SE 7 9 4 5 - - 0.0
07/06:30pm 7.5 4.9 4.1 79 1.5 SE 7 9 4 5 - - 0.0
07/06:00pm 7.8 5.4 4.2 78 1.6 SSE 6 6 3 3 - - 0.0
07/05:30pm 8.0 5.9 4.0 76 1.8 S 4 6 2 3 - - 0.0
07/05:00pm 8.7 6.5 5.4 80 1.5 SW 6 6 3 3 - - 0.0
07/04:30pm 9.8 8.1 5.8 76 1.9 SW 4 6 2 3 - - 0.0
07/04:00pm 10.7 9.0 5.7 71 2.4 SE 4 6 2 3 - - 0.0
07/03:30pm 9.8 8.1 4.2 68 2.6 ESE 2 2 1 1 - - 0.0
07/03:00pm 9.0 6.9 4.0 71 2.3 ESE 4 6 2 3 - - 0.0
07/02:30pm 9.7 7.8 4.9 72 2.2 E 4 6 2 3 - - 0.0
07/02:00pm 11.3 9.2 5.6 68 2.7 E 6 11 3 6 - - 0.0
07/01:30pm 11.9 10.7 6.4 69 2.7 E 2 9 1 5 - - 0.0
07/01:00pm 10.5 8.1 5.1 69 2.5 ESE 7 13 4 7 - - 0.0
07/12:30pm 10.1 8.3 5.5 73 2.2 ESE 4 7 2 4 - - 0.0
07/12:00pm 9.6 7.4 5.2 74 2.1 ESE 6 9 3 5 - - 0.0
07/11:30am 9.3 7.1 5.1 75 2.0 E 6 7 3 4 - - 0.0
07/11:00am 8.5 6.1 4.5 76 1.8 E 6 11 3 6 - - 0.0
07/10:30am 8.1 6.0 5.6 84 1.2 ESE 6 7 3 4 - - 0.0
07/10:00am 7.0 4.5 5.0 87 0.9 ESE 7 9 4 5 - - 0.0
07/09:30am 5.8 2.1 4.4 91 0.6 E 13 17 7 9 - - 0.0
07/09:00am 4.7 2.1 4.0 95 0.3 ENE 7 15 4 8 - - 0.4
07/08:30am 5.0 2.4 4.4 96 0.3 E 7 11 4 6 - - 0.4
07/08:00am 4.3 1.8 3.9 97 0.2 E 6 7 3 4 - - 0.4
07/07:30am 3.6 1.3 2.9 95 0.3 ENE 4 6 2 3 - - 0.4
07/07:00am 4.2 2.7 3.2 93 0.4 CALM 0 0 0 0 - - 0.4
07/06:30am 3.9 1.7 3.2 95 0.3 ENE 4 4 2 2 - - 0.4
07/06:00am 4.0 2.2 3.6 97 0.2 ENE 2 2 1 1 - - 0.4
07/05:30am 4.1 2.0 3.8 98 0.1 ENE 4 4 2 2 - - 0.4
07/05:00am 4.2 1.7 3.8 97 0.2 ENE 6 6 3 3 - - 0.4
07/04:30am 4.2 1.7 3.8 97 0.2 NE 6 6 3 3 - - 0.4
07/04:00am 4.2 1.7 3.6 96 0.3 NNE 6 6 3 3 - - 0.4
07/03:30am 4.3 1.8 3.6 95 0.3 NE 6 6 3 3 - - 0.4
07/03:00am 4.3 2.1 3.6 95 0.3 NE 4 6 2 3 - - 0.4
07/02:30am 4.2 1.4 3.3 94 0.4 ENE 7 7 4 4 - - 0.4
07/02:00am 4.2 1.6 3.0 92 0.5 ENE 6 7 3 4 - - 0.4
07/01:30am 4.0 1.2 3.3 95 0.3 NE 7 9 4 5 - - 0.4
07/01:00am 4.0 1.2 3.1 94 0.4 NNE 7 9 4 5 - - 0.4
07/12:30am 4.0 0.8 3.1 94 0.4 NE 9 11 5 6 - - 0.4
07/12:00am 4.0 1.2 3.1 94 0.4 NNE 7 9 4 5 - - 0.4
 
Date/Time
EST
Temp
°C
App
Temp
°C
Dew
Point
Rel
Hum
%
Delta-T
°C
Wind Press
QNH
hPa
Press
MSL
hPa
Rain
since 9 am
mm
Dir
 
Spd
km/h
Gust
km/h
Spd
kts
Gust
kts
06/11:30pm 4.0 0.8 3.1 94 0.4 NE 9 13 5 7 - - 0.4
06/11:00pm 4.0 1.4 3.1 94 0.4 NE 6 7 3 4 - - 0.4
06/10:30pm 4.0 1.2 3.0 93 0.4 NE 7 9 4 5 - - 0.4
06/10:00pm 4.1 1.4 2.8 91 0.5 NE 6 9 3 5 - - 0.4
06/09:30pm 4.3 1.7 3.1 92 0.5 NNE 6 7 3 4 - - 0.4
06/09:00pm 4.3 1.7 3.4 94 0.4 NE 6 7 3 4 - - 0.4
06/08:30pm 4.3 1.5 3.3 93 0.4 NE 7 9 4 5 - - 0.4
06/08:00pm 4.4 1.8 3.1 91 0.6 NNE 6 9 3 5 - - 0.4
06/07:30pm 4.5 1.7 3.0 90 0.6 NNE 7 9 4 5 - - 0.4
06/07:00pm 4.6 1.7 2.8 88 0.8 NNE 7 13 4 7 - - 0.0
06/06:30pm 4.7 1.4 2.7 87 0.8 NE 9 13 5 7 - - 0.0
06/06:00pm 4.7 0.7 2.7 87 0.8 NE 13 15 7 8 - - 0.0
06/05:30pm 4.8 1.2 2.7 86 0.9 NE 11 17 6 9 - - 0.0
06/05:00pm 4.7 1.1 2.7 87 0.8 ENE 11 13 6 7 - - 0.0
06/04:30pm 5.0 0.6 2.5 84 1.1 ENE 15 19 8 10 - - 0.0
06/04:00pm 5.2 2.0 2.9 85 1.0 NE 9 13 5 7 - - 0.0
06/03:30pm 5.2 1.6 2.9 85 1.0 NE 11 15 6 8 - - 0.0
06/03:00pm 5.4 1.8 2.9 84 1.1 NE 11 15 6 8 - - 0.0
06/02:30pm 5.5 2.3 3.0 84 1.1 ENE 9 11 5 6 - - 0.0
06/02:00pm 5.4 2.8 3.1 85 1.0 NE 6 9 3 5 - - 0.0
06/01:30pm 5.5 2.9 3.3 86 1.0 NNE 6 9 3 5 - - 0.0
06/01:00pm 5.2 2.5 2.7 84 1.1 NNE 6 7 3 4 - - 0.0
06/12:30pm 5.5 2.9 3.2 85 1.0 NE 6 9 3 5 - - 0.0
06/12:00pm 5.2 3.0 3.2 87 0.9 NNE 4 6 2 3 - - 0.0
06/11:30am 5.1 2.5 3.3 88 0.8 NE 6 7 3 4 - - 0.0
06/11:00am 5.0 2.8 3.5 90 0.6 NNE 4 7 2 4 - - 0.0
06/10:30am 4.5 2.6 3.0 90 0.6 N 2 6 1 3 - - 0.0
06/10:00am 4.5 2.2 3.0 90 0.6 NNE 4 7 2 4 - - 0.0
06/09:30am 4.3 2.1 3.1 92 0.5 NE 4 6 2 3 - - 0.0
06/09:00am 4.2 1.6 3.2 93 0.4 NE 6 9 3 5 - - 0.0
06/08:30am 4.0 1.1 2.8 92 0.5 NE 7 9 4 5 - - 0.0
06/08:00am 4.0 1.3 2.5 90 0.6 NNE 6 6 3 3 - - 0.0
06/07:30am 4.0 1.3 2.7 91 0.5 NNE 6 7 3 4 - - 0.0
06/07:00am 3.9 1.2 2.6 91 0.5 NNE 6 6 3 3 - - 0.0
06/06:30am 3.9 1.2 2.7 92 0.5 N 6 7 3 4 - - 0.0
06/06:00am 3.8 1.1 2.8 93 0.4 NNE 6 7 3 4 - - 0.0
06/05:30am 3.9 1.2 2.9 93 0.4 NE 6 9 3 5 - - 0.0
06/05:00am 4.0 1.4 3.0 93 0.4 N 6 7 3 4 - - 0.0
06/04:30am 4.1 1.3 2.9 92 0.5 NNE 7 9 4 5 - - 0.0
06/04:00am 4.1 1.4 2.8 91 0.5 NNE 6 9 3 5 - - 0.0
06/03:30am 4.2 1.3 2.6 89 0.7 NNE 7 9 4 5 - - 0.0
06/03:00am 4.2 1.5 2.6 89 0.7 NNE 6 9 3 5 - - 0.0
06/02:30am 4.2 0.9 2.4 88 0.8 NE 9 11 5 6 - - 0.0
06/02:00am 4.3 1.4 2.5 88 0.8 NNE 7 11 4 6 - - 0.0
06/01:30am 4.4 1.4 2.3 86 0.9 N 7 11 4 6 - - 0.0
06/01:00am 4.5 1.6 2.4 86 0.9 N 7 9 4 5 - - 0.0
06/12:30am 4.4 1.0 2.1 85 1.0 NNE 9 11 5 6 - - 0.0
06/12:00am 4.5 1.2 2.4 86 0.9 NNE 9 13 5 7 - - 0.0
 
Date/Time
EST
Temp
°C
App
Temp
°C
Dew
Point
Rel
Hum
%
Delta-T
°C
Wind Press
QNH
hPa
Press
MSL
hPa
Rain
since 9 am
mm
Dir
 
Spd
km/h
Gust
km/h
Spd
kts
Gust
kts
05/11:30pm 4.6 1.7 2.5 86 0.9 NNE 7 9 4 5 - - 0.0
05/11:00pm 4.7 1.0 2.4 85 1.0 N 11 13 6 7 - - 0.0
05/10:30pm 4.5 1.2 2.7 88 0.8 NNE 9 13 5 7 - - 0.0
05/10:00pm 4.6 1.4 2.8 88 0.8 NNE 9 13 5 7 - - 0.0
05/09:30pm 4.2 0.9 2.4 88 0.8 NNE 9 13 5 7 - - 0.0
05/09:00pm 4.3 0.2 2.2 86 0.9 NNE 13 15 7 8 - - 0.0
05/08:30pm 4.6 1.3 2.6 87 0.8 NNE 9 13 5 7 - - 0.0
05/08:00pm 4.6 1.4 3.3 91 0.6 NNE 9 13 5 7 - - 0.0
05/07:30pm 4.6 1.4 3.1 90 0.6 NNE 9 17 5 9 - - 0.0
05/07:00pm 4.6 1.8 2.9 89 0.7 NNE 7 13 4 7 - - 0.0
05/06:30pm 4.8 1.9 2.8 87 0.8 NNE 7 9 4 5 - - 0.0
05/06:00pm 5.4 2.6 3.1 85 1.0 N 7 9 4 5 - - 0.0
05/05:30pm 5.4 3.1 2.9 84 1.1 NNE 4 7 2 4 - - 0.0
05/05:00pm 5.5 3.2 3.0 84 1.1 N 4 6 2 3 - - 0.0
05/04:30pm 5.6 3.3 2.9 83 1.2 NNE 4 6 2 3 - - 0.0
05/04:00pm 5.8 3.2 3.0 82 1.2 NNE 6 9 3 5 - - 0.0
05/03:30pm 6.0 3.7 3.0 81 1.3 NE 4 6 2 3 - - 0.0
05/03:00pm 6.0 3.3 2.6 79 1.5 NE 6 7 3 4 - - 0.0
05/02:30pm 6.2 3.4 3.2 81 1.3 NE 7 9 4 5 - - 0.0
05/02:00pm 5.8 3.0 3.0 82 1.2 ENE 7 11 4 6 - - 0.0
05/01:30pm 5.7 2.9 2.9 82 1.2 NE 7 9 4 5 - - 0.0
05/01:00pm 5.7 3.1 3.2 84 1.1 NE 6 11 3 6 - - 0.0
05/12:30pm 5.5 2.7 3.2 85 1.0 NE 7 9 4 5 - - 0.0
05/12:00pm 5.3 1.7 3.0 85 1.0 ENE 11 13 6 7 - - 0.0
05/11:30am 5.5 3.0 3.5 87 0.9 NE 6 11 3 6 - - 0.0
05/11:00am 5.3 2.6 3.5 88 0.8 NE 7 11 4 6 - - 0.0
05/10:30am 5.0 2.3 2.7 85 1.0 NNE 6 9 3 5 - - 0.0

Other Formats:

Comma delimited format used in spreadsheet applications
http://www.bom.gov.au/fwo/IDV60801/IDV60801.94881.axf

JavaScript Object Notation format (JSON) in row-major order
http://www.bom.gov.au/fwo/IDV60801/IDV60801.94881.json